Terminal Aerodrome Forecast
Issued by NWS Wilmington, OH

Home | Current Version | Previous Version | Text Only | Print | Product List | Glossary On
Versions: 1 2 3 4 5 6 7 8 9 10 11 12 13 14 15 16 17 18 19
673
FTUS41 KILN 221655 AAD
TAFCMH
TAF AMD
KCMH 221655Z 2217/2312 29028G38KT 2SM +TSRA BR BKN025CB
     FM221715 27012G22KT 6SM -SHRA VCTS BKN035CB
     FM222000 26012G20KT P6SM VCSH OVC035
     FM222300 28010G18KT P6SM BKN040
     FM230400 32008KT P6SM SCT250=

USA.gov is the U.S. government's official web portal to all federal, state and local government web resources and services.